sensor_id;sensor_type;location;lat;lon;timestamp;P1;durP1;ratioP1;P2;durP2;ratioP2
3341;SDS011;1684;50.748;6.154;2022-09-29T00:00:36;6.50;;;5.80;;
3341;SDS011;1684;50.748;6.154;2022-09-29T00:03:05;7.77;;;6.37;;
3341;SDS011;1684;50.748;6.154;2022-09-29T00:05:33;7.73;;;5.63;;
3341;SDS011;1684;50.748;6.154;2022-09-29T00:08:03;9.50;;;5.70;;
3341;SDS011;1684;50.748;6.154;2022-09-29T00:10:31;11.70;;;6.67;;
3341;SDS011;1684;50.748;6.154;2022-09-29T00:12:59;8.17;;;6.03;;
3341;SDS011;1684;50.748;6.154;2022-09-29T00:15:28;10.40;;;6.57;;
3341;SDS011;1684;50.748;6.154;2022-09-29T00:17:56;8.93;;;5.70;;
3341;SDS011;1684;50.748;6.154;2022-09-29T00:20:39;8.37;;;6.73;;
3341;SDS011;1684;50.748;6.154;2022-09-29T00:23:08;8.70;;;6.13;;
3341;SDS011;1684;50.748;6.154;2022-09-29T00:25:36;12.03;;;6.30;;
3341;SDS011;1684;50.748;6.154;2022-09-29T00:28:04;8.37;;;7.17;;
3341;SDS011;1684;50.748;6.154;2022-09-29T00:30:33;9.77;;;6.80;;
3341;SDS011;1684;50.748;6.154;2022-09-29T00:33:01;9.40;;;6.90;;
3341;SDS011;1684;50.748;6.154;2022-09-29T00:35:29;11.70;;;6.73;;
3341;SDS011;1684;50.748;6.154;2022-09-29T00:37:57;8.77;;;7.17;;
3341;SDS011;1684;50.748;6.154;2022-09-29T00:40:27;7.30;;;6.23;;
3341;SDS011;1684;50.748;6.154;2022-09-29T00:42:55;11.33;;;7.73;;
3341;SDS011;1684;50.748;6.154;2022-09-29T00:45:23;8.30;;;7.30;;
3341;SDS011;1684;50.748;6.154;2022-09-29T00:47:53;8.80;;;6.13;;
3341;SDS011;1684;50.748;6.154;2022-09-29T00:50:28;13.47;;;7.27;;
3341;SDS011;1684;50.748;6.154;2022-09-29T00:53:00;10.10;;;7.27;;
3341;SDS011;1684;50.748;6.154;2022-09-29T00:55:39;9.30;;;7.10;;
3341;SDS011;1684;50.748;6.154;2022-09-29T00:58:10;8.63;;;6.90;;
3341;SDS011;1684;50.748;6.154;2022-09-29T01:00:40;8.83;;;6.83;;
3341;SDS011;1684;50.748;6.154;2022-09-29T01:03:09;10.50;;;7.33;;
3341;SDS011;1684;50.748;6.154;2022-09-29T01:05:41;14.10;;;6.40;;
3341;SDS011;1684;50.748;6.154;2022-09-29T01:08:12;9.40;;;7.30;;
3341;SDS011;1684;50.748;6.154;2022-09-29T01:10:43;9.53;;;7.53;;
3341;SDS011;1684;50.748;6.154;2022-09-29T01:13:12;10.87;;;8.10;;
3341;SDS011;1684;50.748;6.154;2022-09-29T01:15:40;10.17;;;6.90;;
3341;SDS011;1684;50.748;6.154;2022-09-29T01:18:08;13.57;;;7.90;;
3341;SDS011;1684;50.748;6.154;2022-09-29T01:20:38;14.73;;;8.90;;
3341;SDS011;1684;50.748;6.154;2022-09-29T01:28:45;13.47;;;7.60;;
3341;SDS011;1684;50.748;6.154;2022-09-29T01:31:18;8.63;;;6.50;;
3341;SDS011;1684;50.748;6.154;2022-09-29T01:33:52;9.20;;;7.10;;
3341;SDS011;1684;50.748;6.154;2022-09-29T01:36:25;7.90;;;6.60;;
3341;SDS011;1684;50.748;6.154;2022-09-29T01:38:59;8.50;;;6.47;;
3341;SDS011;1684;50.748;6.154;2022-09-29T01:41:32;9.40;;;6.40;;
3341;SDS011;1684;50.748;6.154;2022-09-29T01:44:03;9.17;;;7.33;;
3341;SDS011;1684;50.748;6.154;2022-09-29T01:46:35;9.90;;;6.93;;
3341;SDS011;1684;50.748;6.154;2022-09-29T01:49:05;10.90;;;7.97;;
3341;SDS011;1684;50.748;6.154;2022-09-29T01:51:35;9.63;;;7.50;;
3341;SDS011;1684;50.748;6.154;2022-09-29T01:54:07;10.30;;;6.90;;
3341;SDS011;1684;50.748;6.154;2022-09-29T01:56:37;12.00;;;7.60;;
3341;SDS011;1684;50.748;6.154;2022-09-29T01:59:09;10.30;;;7.13;;
3341;SDS011;1684;50.748;6.154;2022-09-29T02:01:41;10.03;;;7.77;;
3341;SDS011;1684;50.748;6.154;2022-09-29T02:04:11;13.93;;;8.97;;
3341;SDS011;1684;50.748;6.154;2022-09-29T02:06:42;11.33;;;8.83;;
3341;SDS011;1684;50.748;6.154;2022-09-29T02:09:13;11.03;;;8.00;;
3341;SDS011;1684;50.748;6.154;2022-09-29T02:11:43;10.70;;;7.97;;
3341;SDS011;1684;50.748;6.154;2022-09-29T02:14:12;10.50;;;7.37;;
3341;SDS011;1684;50.748;6.154;2022-09-29T02:16:45;10.83;;;8.27;;
3341;SDS011;1684;50.748;6.154;2022-09-29T02:19:14;10.33;;;8.10;;
3341;SDS011;1684;50.748;6.154;2022-09-29T02:21:43;12.20;;;7.37;;
3341;SDS011;1684;50.748;6.154;2022-09-29T02:24:11;9.13;;;7.40;;
3341;SDS011;1684;50.748;6.154;2022-09-29T02:26:40;9.43;;;7.93;;
3341;SDS011;1684;50.748;6.154;2022-09-29T02:29:10;11.17;;;8.87;;
3341;SDS011;1684;50.748;6.154;2022-09-29T02:31:38;14.37;;;9.10;;
3341;SDS011;1684;50.748;6.154;2022-09-29T02:34:09;12.07;;;7.97;;
3341;SDS011;1684;50.748;6.154;2022-09-29T02:36:39;10.70;;;8.30;;
3341;SDS011;1684;50.748;6.154;2022-09-29T02:39:11;12.57;;;8.90;;
3341;SDS011;1684;50.748;6.154;2022-09-29T02:41:44;13.67;;;9.10;;
3341;SDS011;1684;50.748;6.154;2022-09-29T02:44:20;14.80;;;8.53;;
3341;SDS011;1684;50.748;6.154;2022-09-29T02:46:56;11.97;;;8.67;;
3341;SDS011;1684;50.748;6.154;2022-09-29T02:49:29;13.50;;;8.50;;
3341;SDS011;1684;50.748;6.154;2022-09-29T02:52:01;10.70;;;8.60;;
3341;SDS011;1684;50.748;6.154;2022-09-29T02:54:36;9.80;;;8.23;;
3341;SDS011;1684;50.748;6.154;2022-09-29T02:57:12;12.57;;;8.30;;
3341;SDS011;1684;50.748;6.154;2022-09-29T02:59:45;12.70;;;8.10;;
3341;SDS011;1684;50.748;6.154;2022-09-29T03:02:21;11.77;;;8.93;;
3341;SDS011;1684;50.748;6.154;2022-09-29T03:04:51;10.60;;;8.50;;
3341;SDS011;1684;50.748;6.154;2022-09-29T03:07:20;13.50;;;8.87;;
3341;SDS011;1684;50.748;6.154;2022-09-29T03:09:48;13.37;;;9.33;;
3341;SDS011;1684;50.748;6.154;2022-09-29T03:12:16;13.47;;;9.13;;
3341;SDS011;1684;50.748;6.154;2022-09-29T03:14:45;14.67;;;9.13;;
3341;SDS011;1684;50.748;6.154;2022-09-29T03:17:13;12.13;;;8.90;;
3341;SDS011;1684;50.748;6.154;2022-09-29T03:19:42;11.50;;;8.70;;
3341;SDS011;1684;50.748;6.154;2022-09-29T03:22:11;10.37;;;8.47;;
3341;SDS011;1684;50.748;6.154;2022-09-29T03:24:39;16.87;;;9.97;;
3341;SDS011;1684;50.748;6.154;2022-09-29T03:27:08;12.47;;;9.30;;
3341;SDS011;1684;50.748;6.154;2022-09-29T03:29:36;15.43;;;10.07;;
3341;SDS011;1684;50.748;6.154;2022-09-29T03:32:05;10.67;;;8.07;;
3341;SDS011;1684;50.748;6.154;2022-09-29T03:34:33;13.30;;;8.57;;
3341;SDS011;1684;50.748;6.154;2022-09-29T03:37:01;14.87;;;8.30;;
3341;SDS011;1684;50.748;6.154;2022-09-29T03:39:31;14.60;;;9.80;;
3341;SDS011;1684;50.748;6.154;2022-09-29T03:41:59;15.40;;;9.03;;
3341;SDS011;1684;50.748;6.154;2022-09-29T03:44:27;9.97;;;7.17;;
3341;SDS011;1684;50.748;6.154;2022-09-29T03:46:56;10.93;;;8.30;;
3341;SDS011;1684;50.748;6.154;2022-09-29T03:49:24;11.97;;;8.60;;
3341;SDS011;1684;50.748;6.154;2022-09-29T03:51:52;13.83;;;8.40;;
3341;SDS011;1684;50.748;6.154;2022-09-29T03:54:21;8.83;;;7.27;;
3341;SDS011;1684;50.748;6.154;2022-09-29T03:56:52;11.70;;;8.23;;
3341;SDS011;1684;50.748;6.154;2022-09-29T03:59:21;10.97;;;7.27;;
3341;SDS011;1684;50.748;6.154;2022-09-29T04:01:49;11.60;;;7.20;;
3341;SDS011;1684;50.748;6.154;2022-09-29T04:04:17;15.90;;;8.00;;
3341;SDS011;1684;50.748;6.154;2022-09-29T04:06:45;11.93;;;8.30;;
3341;SDS011;1684;50.748;6.154;2022-09-29T04:09:14;9.57;;;7.40;;
3341;SDS011;1684;50.748;6.154;2022-09-29T04:11:42;10.47;;;7.60;;
3341;SDS011;1684;50.748;6.154;2022-09-29T04:14:11;10.97;;;7.97;;
3341;SDS011;1684;50.748;6.154;2022-09-29T04:16:40;14.40;;;8.57;;
3341;SDS011;1684;50.748;6.154;2022-09-29T04:19:08;10.70;;;7.30;;
3341;SDS011;1684;50.748;6.154;2022-09-29T04:21:36;13.23;;;7.90;;
3341;SDS011;1684;50.748;6.154;2022-09-29T04:24:05;12.20;;;8.13;;
3341;SDS011;1684;50.748;6.154;2022-09-29T04:26:33;10.60;;;8.07;;
3341;SDS011;1684;50.748;6.154;2022-09-29T04:29:01;12.73;;;7.87;;
3341;SDS011;1684;50.748;6.154;2022-09-29T04:31:31;13.87;;;7.50;;
3341;SDS011;1684;50.748;6.154;2022-09-29T04:33:59;8.80;;;6.87;;
3341;SDS011;1684;50.748;6.154;2022-09-29T04:36:27;12.43;;;8.10;;
3341;SDS011;1684;50.748;6.154;2022-09-29T04:38:55;9.17;;;6.63;;
3341;SDS011;1684;50.748;6.154;2022-09-29T04:41:23;10.90;;;7.70;;
3341;SDS011;1684;50.748;6.154;2022-09-29T04:43:52;10.47;;;8.20;;
3341;SDS011;1684;50.748;6.154;2022-09-29T04:46:20;12.80;;;6.90;;
3341;SDS011;1684;50.748;6.154;2022-09-29T04:48:50;8.87;;;6.83;;
3341;SDS011;1684;50.748;6.154;2022-09-29T04:51:18;10.03;;;6.40;;
3341;SDS011;1684;50.748;6.154;2022-09-29T04:53:46;13.10;;;7.37;;
3341;SDS011;1684;50.748;6.154;2022-09-29T04:56:14;9.07;;;7.27;;
3341;SDS011;1684;50.748;6.154;2022-09-29T04:58:42;8.97;;;6.37;;
3341;SDS011;1684;50.748;6.154;2022-09-29T05:01:11;10.20;;;7.07;;
3341;SDS011;1684;50.748;6.154;2022-09-29T05:03:39;11.20;;;6.73;;
3341;SDS011;1684;50.748;6.154;2022-09-29T05:06:09;9.60;;;6.57;;
3341;SDS011;1684;50.748;6.154;2022-09-29T05:08:38;8.50;;;6.40;;
3341;SDS011;1684;50.748;6.154;2022-09-29T05:11:07;14.33;;;6.77;;
3341;SDS011;1684;50.748;6.154;2022-09-29T05:13:36;10.80;;;7.07;;
3341;SDS011;1684;50.748;6.154;2022-09-29T05:16:04;12.63;;;7.30;;
3341;SDS011;1684;50.748;6.154;2022-09-29T05:18:33;9.63;;;6.40;;
3341;SDS011;1684;50.748;6.154;2022-09-29T05:21:02;13.23;;;6.93;;
3341;SDS011;1684;50.748;6.154;2022-09-29T05:23:52;9.10;;;6.30;;
3341;SDS011;1684;50.748;6.154;2022-09-29T05:26:20;11.50;;;6.60;;
3341;SDS011;1684;50.748;6.154;2022-09-29T05:28:48;9.43;;;6.10;;
3341;SDS011;1684;50.748;6.154;2022-09-29T05:31:16;9.73;;;6.37;;
3341;SDS011;1684;50.748;6.154;2022-09-29T05:33:45;9.00;;;6.50;;
3341;SDS011;1684;50.748;6.154;2022-09-29T05:36:13;11.13;;;5.97;;
3341;SDS011;1684;50.748;6.154;2022-09-29T05:38:41;11.07;;;7.47;;
3341;SDS011;1684;50.748;6.154;2022-09-29T05:41:11;9.17;;;6.87;;
3341;SDS011;1684;50.748;6.154;2022-09-29T05:43:41;11.63;;;6.27;;
3341;SDS011;1684;50.748;6.154;2022-09-29T05:46:09;11.57;;;7.30;;
3341;SDS011;1684;50.748;6.154;2022-09-29T05:48:38;12.40;;;7.13;;
3341;SDS011;1684;50.748;6.154;2022-09-29T05:51:07;10.77;;;7.43;;
3341;SDS011;1684;50.748;6.154;2022-09-29T05:53:35;12.20;;;8.23;;
3341;SDS011;1684;50.748;6.154;2022-09-29T05:56:04;13.37;;;7.50;;
3341;SDS011;1684;50.748;6.154;2022-09-29T05:58:34;11.80;;;7.13;;
3341;SDS011;1684;50.748;6.154;2022-09-29T06:01:06;7.60;;;5.10;;
3341;SDS011;1684;50.748;6.154;2022-09-29T06:03:34;10.43;;;6.87;;
3341;SDS011;1684;50.748;6.154;2022-09-29T06:06:03;10.50;;;7.63;;
3341;SDS011;1684;50.748;6.154;2022-09-29T06:08:32;15.03;;;9.17;;
3341;SDS011;1684;50.748;6.154;2022-09-29T06:11:04;10.60;;;7.20;;
3341;SDS011;1684;50.748;6.154;2022-09-29T06:13:32;10.50;;;7.77;;
3341;SDS011;1684;50.748;6.154;2022-09-29T06:16:02;13.17;;;8.37;;
3341;SDS011;1684;50.748;6.154;2022-09-29T06:18:30;10.87;;;8.07;;
3341;SDS011;1684;50.748;6.154;2022-09-29T06:20:59;13.57;;;7.30;;
3341;SDS011;1684;50.748;6.154;2022-09-29T06:23:27;13.53;;;8.13;;
3341;SDS011;1684;50.748;6.154;2022-09-29T06:25:56;13.20;;;8.97;;
3341;SDS011;1684;50.748;6.154;2022-09-29T06:28:24;12.63;;;7.87;;
3341;SDS011;1684;50.748;6.154;2022-09-29T06:30:57;14.20;;;9.50;;
3341;SDS011;1684;50.748;6.154;2022-09-29T06:33:27;13.70;;;8.43;;
3341;SDS011;1684;50.748;6.154;2022-09-29T06:35:55;15.33;;;8.63;;
3341;SDS011;1684;50.748;6.154;2022-09-29T06:38:41;14.00;;;7.80;;
3341;SDS011;1684;50.748;6.154;2022-09-29T06:41:09;13.67;;;8.60;;
3341;SDS011;1684;50.748;6.154;2022-09-29T06:43:37;13.70;;;10.03;;
3341;SDS011;1684;50.748;6.154;2022-09-29T06:46:05;13.60;;;9.17;;
3341;SDS011;1684;50.748;6.154;2022-09-29T06:48:36;14.73;;;8.80;;
3341;SDS011;1684;50.748;6.154;2022-09-29T06:51:05;16.80;;;10.00;;
3341;SDS011;1684;50.748;6.154;2022-09-29T06:53:35;15.43;;;9.03;;
3341;SDS011;1684;50.748;6.154;2022-09-29T06:56:04;16.27;;;9.23;;
3341;SDS011;1684;50.748;6.154;2022-09-29T06:58:34;15.80;;;9.33;;
3341;SDS011;1684;50.748;6.154;2022-09-29T07:01:03;17.67;;;11.33;;
3341;SDS011;1684;50.748;6.154;2022-09-29T07:03:32;17.80;;;8.70;;
3341;SDS011;1684;50.748;6.154;2022-09-29T07:06:02;14.73;;;10.30;;
3341;SDS011;1684;50.748;6.154;2022-09-29T07:08:45;17.83;;;10.10;;
3341;SDS011;1684;50.748;6.154;2022-09-29T07:11:15;14.67;;;9.47;;
3341;SDS011;1684;50.748;6.154;2022-09-29T07:13:43;14.10;;;10.87;;
3341;SDS011;1684;50.748;6.154;2022-09-29T07:16:15;16.00;;;10.37;;
3341;SDS011;1684;50.748;6.154;2022-09-29T07:18:44;20.90;;;11.83;;
3341;SDS011;1684;50.748;6.154;2022-09-29T07:21:14;20.33;;;11.07;;
3341;SDS011;1684;50.748;6.154;2022-09-29T07:23:43;13.97;;;9.47;;
3341;SDS011;1684;50.748;6.154;2022-09-29T07:26:12;20.03;;;11.63;;
3341;SDS011;1684;50.748;6.154;2022-09-29T07:28:41;19.80;;;10.77;;
3341;SDS011;1684;50.748;6.154;2022-09-29T07:31:11;17.70;;;11.73;;
3341;SDS011;1684;50.748;6.154;2022-09-29T07:33:41;18.60;;;12.40;;
3341;SDS011;1684;50.748;6.154;2022-09-29T07:36:09;19.77;;;11.90;;
3341;SDS011;1684;50.748;6.154;2022-09-29T07:38:39;17.17;;;12.13;;
3341;SDS011;1684;50.748;6.154;2022-09-29T07:41:09;23.60;;;12.03;;
3341;SDS011;1684;50.748;6.154;2022-09-29T07:43:37;24.67;;;12.73;;
3341;SDS011;1684;50.748;6.154;2022-09-29T07:46:06;19.57;;;12.67;;
3341;SDS011;1684;50.748;6.154;2022-09-29T07:48:35;20.03;;;12.70;;
3341;SDS011;1684;50.748;6.154;2022-09-29T07:51:04;28.33;;;12.27;;
3341;SDS011;1684;50.748;6.154;2022-09-29T07:53:33;19.20;;;12.73;;
3341;SDS011;1684;50.748;6.154;2022-09-29T07:56:03;19.43;;;12.07;;
3341;SDS011;1684;50.748;6.154;2022-09-29T07:58:34;25.03;;;13.30;;
3341;SDS011;1684;50.748;6.154;2022-09-29T08:01:03;19.37;;;12.00;;
3341;SDS011;1684;50.748;6.154;2022-09-29T08:03:32;21.80;;;12.97;;
3341;SDS011;1684;50.748;6.154;2022-09-29T08:06:00;28.23;;;12.70;;
3341;SDS011;1684;50.748;6.154;2022-09-29T08:08:29;18.33;;;11.80;;
3341;SDS011;1684;50.748;6.154;2022-09-29T08:11:01;24.17;;;13.60;;
3341;SDS011;1684;50.748;6.154;2022-09-29T08:13:31;23.90;;;13.40;;
3341;SDS011;1684;50.748;6.154;2022-09-29T08:16:01;18.20;;;12.20;;
3341;SDS011;1684;50.748;6.154;2022-09-29T08:18:31;20.57;;;13.57;;
3341;SDS011;1684;50.748;6.154;2022-09-29T08:20:59;24.70;;;13.17;;
3341;SDS011;1684;50.748;6.154;2022-09-29T08:23:29;20.20;;;12.53;;
3341;SDS011;1684;50.748;6.154;2022-09-29T08:25:58;20.80;;;12.20;;
3341;SDS011;1684;50.748;6.154;2022-09-29T08:28:28;23.27;;;14.23;;
3341;SDS011;1684;50.748;6.154;2022-09-29T08:31:01;26.27;;;15.10;;
3341;SDS011;1684;50.748;6.154;2022-09-29T08:33:33;23.80;;;13.90;;
3341;SDS011;1684;50.748;6.154;2022-09-29T08:36:03;25.83;;;14.47;;
3341;SDS011;1684;50.748;6.154;2022-09-29T08:38:40;24.67;;;14.57;;
3341;SDS011;1684;50.748;6.154;2022-09-29T08:41:16;26.37;;;14.80;;
3341;SDS011;1684;50.748;6.154;2022-09-29T08:43:46;31.13;;;17.50;;
3341;SDS011;1684;50.748;6.154;2022-09-29T08:46:20;23.90;;;14.90;;
3341;SDS011;1684;50.748;6.154;2022-09-29T08:49:02;26.70;;;17.23;;
3341;SDS011;1684;50.748;6.154;2022-09-29T08:51:33;28.33;;;17.33;;
3341;SDS011;1684;50.748;6.154;2022-09-29T08:54:11;31.03;;;18.63;;
3341;SDS011;1684;50.748;6.154;2022-09-29T08:56:44;25.53;;;15.13;;
3341;SDS011;1684;50.748;6.154;2022-09-29T08:59:12;25.57;;;16.13;;
3341;SDS011;1684;50.748;6.154;2022-09-29T09:01:44;27.03;;;14.50;;
3341;SDS011;1684;50.748;6.154;2022-09-29T09:04:22;33.90;;;16.53;;
3341;SDS011;1684;50.748;6.154;2022-09-29T09:06:58;19.70;;;12.60;;
3341;SDS011;1684;50.748;6.154;2022-09-29T09:09:39;29.67;;;15.83;;
3341;SDS011;1684;50.748;6.154;2022-09-29T09:12:17;26.87;;;16.07;;
3341;SDS011;1684;50.748;6.154;2022-09-29T09:14:53;20.87;;;14.20;;
3341;SDS011;1684;50.748;6.154;2022-09-29T09:17:29;22.90;;;14.90;;
3341;SDS011;1684;50.748;6.154;2022-09-29T09:20:09;21.00;;;13.73;;
3341;SDS011;1684;50.748;6.154;2022-09-29T09:22:41;24.13;;;14.07;;
3341;SDS011;1684;50.748;6.154;2022-09-29T09:25:18;19.67;;;11.23;;
3341;SDS011;1684;50.748;6.154;2022-09-29T09:27:51;12.43;;;7.93;;
3341;SDS011;1684;50.748;6.154;2022-09-29T09:30:20;18.27;;;10.00;;
3341;SDS011;1684;50.748;6.154;2022-09-29T09:32:51;18.00;;;10.23;;
3341;SDS011;1684;50.748;6.154;2022-09-29T09:35:27;12.87;;;7.73;;
3341;SDS011;1684;50.748;6.154;2022-09-29T09:37:57;12.10;;;8.00;;
3341;SDS011;1684;50.748;6.154;2022-09-29T09:40:27;11.30;;;9.03;;
3341;SDS011;1684;50.748;6.154;2022-09-29T09:42:59;10.13;;;6.40;;
3341;SDS011;1684;50.748;6.154;2022-09-29T09:45:31;9.40;;;4.97;;
3341;SDS011;1684;50.748;6.154;2022-09-29T09:48:03;5.93;;;3.57;;
3341;SDS011;1684;50.748;6.154;2022-09-29T09:50:35;4.97;;;3.07;;
3341;SDS011;1684;50.748;6.154;2022-09-29T09:53:08;5.47;;;3.43;;
3341;SDS011;1684;50.748;6.154;2022-09-29T09:55:41;4.53;;;3.20;;
3341;SDS011;1684;50.748;6.154;2022-09-29T09:58:17;5.87;;;3.27;;
3341;SDS011;1684;50.748;6.154;2022-09-29T10:00:51;4.20;;;2.93;;
3341;SDS011;1684;50.748;6.154;2022-09-29T10:03:22;4.80;;;3.10;;
3341;SDS011;1684;50.748;6.154;2022-09-29T10:05:53;6.23;;;3.10;;
3341;SDS011;1684;50.748;6.154;2022-09-29T10:08:22;4.57;;;2.90;;
3341;SDS011;1684;50.748;6.154;2022-09-29T10:10:52;4.00;;;2.77;;
3341;SDS011;1684;50.748;6.154;2022-09-29T10:13:25;4.53;;;3.13;;
3341;SDS011;1684;50.748;6.154;2022-09-29T10:15:55;4.50;;;2.90;;
3341;SDS011;1684;50.748;6.154;2022-09-29T10:18:27;6.70;;;2.87;;
3341;SDS011;1684;50.748;6.154;2022-09-29T10:20:56;7.60;;;2.83;;
3341;SDS011;1684;50.748;6.154;2022-09-29T10:23:26;4.27;;;2.43;;
3341;SDS011;1684;50.748;6.154;2022-09-29T10:25:56;2.90;;;1.90;;
3341;SDS011;1684;50.748;6.154;2022-09-29T10:28:26;6.53;;;2.90;;
3341;SDS011;1684;50.748;6.154;2022-09-29T10:30:56;9.70;;;2.73;;
3341;SDS011;1684;50.748;6.154;2022-09-29T10:33:29;3.93;;;2.87;;
3341;SDS011;1684;50.748;6.154;2022-09-29T10:36:05;5.13;;;2.07;;
3341;SDS011;1684;50.748;6.154;2022-09-29T10:38:34;5.57;;;2.90;;
3341;SDS011;1684;50.748;6.154;2022-09-29T10:41:04;5.23;;;2.47;;
3341;SDS011;1684;50.748;6.154;2022-09-29T10:43:34;4.20;;;2.30;;
3341;SDS011;1684;50.748;6.154;2022-09-29T10:46:03;3.07;;;2.23;;
3341;SDS011;1684;50.748;6.154;2022-09-29T10:48:33;3.97;;;2.67;;
3341;SDS011;1684;50.748;6.154;2022-09-29T10:51:02;8.57;;;3.07;;
3341;SDS011;1684;50.748;6.154;2022-09-29T10:53:32;4.07;;;2.50;;
3341;SDS011;1684;50.748;6.154;2022-09-29T10:56:02;4.90;;;2.60;;
3341;SDS011;1684;50.748;6.154;2022-09-29T10:58:32;3.50;;;2.20;;
3341;SDS011;1684;50.748;6.154;2022-09-29T11:01:22;4.47;;;3.20;;
3341;SDS011;1684;50.748;6.154;2022-09-29T11:03:52;3.47;;;2.63;;
3341;SDS011;1684;50.748;6.154;2022-09-29T11:06:26;3.50;;;2.10;;
3341;SDS011;1684;50.748;6.154;2022-09-29T11:08:56;3.97;;;2.20;;
3341;SDS011;1684;50.748;6.154;2022-09-29T11:11:27;3.30;;;2.10;;
3341;SDS011;1684;50.748;6.154;2022-09-29T11:13:55;3.50;;;2.30;;
3341;SDS011;1684;50.748;6.154;2022-09-29T11:16:26;5.50;;;2.57;;
3341;SDS011;1684;50.748;6.154;2022-09-29T11:18:57;3.97;;;1.90;;
3341;SDS011;1684;50.748;6.154;2022-09-29T11:21:47;6.10;;;2.10;;
3341;SDS011;1684;50.748;6.154;2022-09-29T11:24:21;4.40;;;1.70;;
3341;SDS011;1684;50.748;6.154;2022-09-29T11:26:56;3.40;;;1.60;;
3341;SDS011;1684;50.748;6.154;2022-09-29T11:29:27;4.30;;;2.07;;
3341;SDS011;1684;50.748;6.154;2022-09-29T11:32:09;4.43;;;1.90;;
3341;SDS011;1684;50.748;6.154;2022-09-29T11:34:45;4.80;;;1.83;;
3341;SDS011;1684;50.748;6.154;2022-09-29T11:37:19;2.07;;;1.10;;
3341;SDS011;1684;50.748;6.154;2022-09-29T11:39:55;2.93;;;1.50;;
3341;SDS011;1684;50.748;6.154;2022-09-29T11:42:28;3.10;;;2.17;;
3341;SDS011;1684;50.748;6.154;2022-09-29T11:45:00;2.77;;;1.93;;
3341;SDS011;1684;50.748;6.154;2022-09-29T11:50:20;2.97;;;1.80;;
3341;SDS011;1684;50.748;6.154;2022-09-29T11:52:52;4.87;;;1.80;;
3341;SDS011;1684;50.748;6.154;2022-09-29T11:55:26;2.63;;;1.70;;
3341;SDS011;1684;50.748;6.154;2022-09-29T11:57:58;4.63;;;1.97;;
3341;SDS011;1684;50.748;6.154;2022-09-29T12:00:33;6.13;;;1.77;;
3341;SDS011;1684;50.748;6.154;2022-09-29T12:03:08;3.33;;;1.73;;
3341;SDS011;1684;50.748;6.154;2022-09-29T12:05:48;2.80;;;1.53;;
3341;SDS011;1684;50.748;6.154;2022-09-29T12:08:24;7.23;;;1.70;;
3341;SDS011;1684;50.748;6.154;2022-09-29T12:10:57;2.60;;;1.60;;
3341;SDS011;1684;50.748;6.154;2022-09-29T12:13:48;3.00;;;1.40;;
3341;SDS011;1684;50.748;6.154;2022-09-29T12:16:21;3.00;;;1.77;;
3341;SDS011;1684;50.748;6.154;2022-09-29T12:18:52;2.30;;;1.60;;
3341;SDS011;1684;50.748;6.154;2022-09-29T12:21:26;4.03;;;1.40;;
3341;SDS011;1684;50.748;6.154;2022-09-29T12:24:00;4.30;;;1.67;;
3341;SDS011;1684;50.748;6.154;2022-09-29T12:26:30;5.60;;;2.03;;
3341;SDS011;1684;50.748;6.154;2022-09-29T12:28:59;8.03;;;4.20;;
3341;SDS011;1684;50.748;6.154;2022-09-29T12:31:29;3.40;;;2.17;;
3341;SDS011;1684;50.748;6.154;2022-09-29T12:34:00;3.10;;;2.20;;
3341;SDS011;1684;50.748;6.154;2022-09-29T12:36:44;4.40;;;2.40;;
3341;SDS011;1684;50.748;6.154;2022-09-29T12:39:28;3.57;;;1.80;;
3341;SDS011;1684;50.748;6.154;2022-09-29T12:42:01;8.10;;;2.13;;
3341;SDS011;1684;50.748;6.154;2022-09-29T12:44:32;3.27;;;1.93;;
3341;SDS011;1684;50.748;6.154;2022-09-29T12:47:04;4.27;;;1.70;;
3341;SDS011;1684;50.748;6.154;2022-09-29T12:49:36;3.57;;;2.00;;
3341;SDS011;1684;50.748;6.154;2022-09-29T12:52:10;3.37;;;1.80;;
3341;SDS011;1684;50.748;6.154;2022-09-29T12:54:41;3.07;;;2.07;;
3341;SDS011;1684;50.748;6.154;2022-09-29T12:57:13;3.63;;;1.70;;
3341;SDS011;1684;50.748;6.154;2022-09-29T12:59:42;7.20;;;2.13;;
3341;SDS011;1684;50.748;6.154;2022-09-29T13:02:18;4.13;;;2.10;;
3341;SDS011;1684;50.748;6.154;2022-09-29T13:04:59;5.40;;;2.00;;
3341;SDS011;1684;50.748;6.154;2022-09-29T13:15:51;6.60;;;2.47;;
3341;SDS011;1684;50.748;6.154;2022-09-29T13:18:27;4.67;;;1.60;;
3341;SDS011;1684;50.748;6.154;2022-09-29T13:21:02;3.53;;;1.60;;
3341;SDS011;1684;50.748;6.154;2022-09-29T13:26:34;3.17;;;1.50;;
3341;SDS011;1684;50.748;6.154;2022-09-29T13:36:30;6.03;;;2.50;;
3341;SDS011;1684;50.748;6.154;2022-09-29T13:39:00;2.90;;;2.00;;
3341;SDS011;1684;50.748;6.154;2022-09-29T13:41:35;3.67;;;2.10;;
3341;SDS011;1684;50.748;6.154;2022-09-29T13:44:05;2.93;;;1.43;;
3341;SDS011;1684;50.748;6.154;2022-09-29T13:46:36;2.63;;;1.53;;
3341;SDS011;1684;50.748;6.154;2022-09-29T13:50:57;3.40;;;2.13;;
3341;SDS011;1684;50.748;6.154;2022-09-29T13:53:45;5.07;;;2.07;;
3341;SDS011;1684;50.748;6.154;2022-09-29T13:56:14;3.67;;;1.80;;
3341;SDS011;1684;50.748;6.154;2022-09-29T13:58:57;9.70;;;2.53;;
3341;SDS011;1684;50.748;6.154;2022-09-29T14:01:29;3.97;;;1.60;;
3341;SDS011;1684;50.748;6.154;2022-09-29T14:06:45;3.00;;;1.60;;
3341;SDS011;1684;50.748;6.154;2022-09-29T14:09:14;3.53;;;1.83;;
3341;SDS011;1684;50.748;6.154;2022-09-29T14:11:46;5.03;;;1.70;;
3341;SDS011;1684;50.748;6.154;2022-09-29T14:14:15;4.40;;;2.90;;
3341;SDS011;1684;50.748;6.154;2022-09-29T14:16:49;4.20;;;2.57;;
3341;SDS011;1684;50.748;6.154;2022-09-29T14:19:23;4.13;;;2.30;;
3341;SDS011;1684;50.748;6.154;2022-09-29T14:21:54;7.10;;;2.50;;
3341;SDS011;1684;50.748;6.154;2022-09-29T14:24:41;2.40;;;1.37;;
3341;SDS011;1684;50.748;6.154;2022-09-29T14:27:15;3.80;;;2.20;;
3341;SDS011;1684;50.748;6.154;2022-09-29T14:29:46;3.10;;;1.90;;
3341;SDS011;1684;50.748;6.154;2022-09-29T14:32:16;3.37;;;2.40;;
3341;SDS011;1684;50.748;6.154;2022-09-29T14:34:45;4.80;;;2.50;;
3341;SDS011;1684;50.748;6.154;2022-09-29T14:37:18;2.90;;;1.80;;
3341;SDS011;1684;50.748;6.154;2022-09-29T14:39:47;8.33;;;2.63;;
3341;SDS011;1684;50.748;6.154;2022-09-29T14:42:30;5.77;;;2.80;;
3341;SDS011;1684;50.748;6.154;2022-09-29T14:44:58;5.60;;;2.77;;
3341;SDS011;1684;50.748;6.154;2022-09-29T14:47:45;3.70;;;1.90;;
3341;SDS011;1684;50.748;6.154;2022-09-29T14:50:37;5.33;;;2.47;;
3341;SDS011;1684;50.748;6.154;2022-09-29T14:53:33;5.63;;;2.30;;
3341;SDS011;1684;50.748;6.154;2022-09-29T14:56:09;6.82;;;2.85;;
3341;SDS011;1684;50.748;6.154;2022-09-29T14:58:44;5.60;;;2.40;;
3341;SDS011;1684;50.748;6.154;2022-09-29T15:01:16;8.17;;;2.93;;
3341;SDS011;1684;50.748;6.154;2022-09-29T15:03:47;8.47;;;2.50;;
3341;SDS011;1684;50.748;6.154;2022-09-29T15:06:17;4.27;;;2.37;;
3341;SDS011;1684;50.748;6.154;2022-09-29T15:08:53;6.80;;;3.43;;
3341;SDS011;1684;50.748;6.154;2022-09-29T15:11:26;4.60;;;2.73;;
3341;SDS011;1684;50.748;6.154;2022-09-29T15:13:55;3.27;;;2.30;;
3341;SDS011;1684;50.748;6.154;2022-09-29T15:16:34;4.60;;;2.17;;
3341;SDS011;1684;50.748;6.154;2022-09-29T15:19:10;4.20;;;2.40;;
3341;SDS011;1684;50.748;6.154;2022-09-29T15:21:52;3.83;;;2.67;;
3341;SDS011;1684;50.748;6.154;2022-09-29T15:24:28;4.87;;;2.53;;
3341;SDS011;1684;50.748;6.154;2022-09-29T15:27:01;4.43;;;2.67;;
3341;SDS011;1684;50.748;6.154;2022-09-29T15:29:30;5.90;;;3.07;;
3341;SDS011;1684;50.748;6.154;2022-09-29T15:31:58;5.73;;;3.57;;
3341;SDS011;1684;50.748;6.154;2022-09-29T15:34:27;6.93;;;4.07;;
3341;SDS011;1684;50.748;6.154;2022-09-29T15:36:55;5.30;;;3.50;;
3341;SDS011;1684;50.748;6.154;2022-09-29T15:39:39;4.60;;;3.63;;
3341;SDS011;1684;50.748;6.154;2022-09-29T15:42:11;8.77;;;4.40;;
3341;SDS011;1684;50.748;6.154;2022-09-29T15:44:43;8.70;;;4.77;;
3341;SDS011;1684;50.748;6.154;2022-09-29T15:47:18;10.43;;;5.27;;
3341;SDS011;1684;50.748;6.154;2022-09-29T15:49:51;8.20;;;4.13;;
3341;SDS011;1684;50.748;6.154;2022-09-29T15:52:19;5.40;;;2.70;;
3341;SDS011;1684;50.748;6.154;2022-09-29T15:54:53;7.93;;;3.20;;
3341;SDS011;1684;50.748;6.154;2022-09-29T15:57:41;9.17;;;3.50;;
3341;SDS011;1684;50.748;6.154;2022-09-29T16:03:00;7.73;;;3.20;;
3341;SDS011;1684;50.748;6.154;2022-09-29T16:05:30;3.47;;;2.70;;